TimeEDT,TemperatureF,Dew PointF,Humidity,Sea Level PressureIn,VisibilityMPH,Wind Direction,Wind SpeedMPH,Gust SpeedMPH,PrecipitationIn,Events,Conditions,WindDirDegrees,DateUTC
12:54 AM,39.0,33.1,79,30.30,10.0,Calm,Calm,-,N/A,,Clear,0,2011-11-01 04:54:00
1:54 AM,36.0,33.1,89,30.30,10.0,Calm,Calm,-,N/A,,Overcast,0,2011-11-01 05:54:00
2:54 AM,36.0,32.0,86,30.30,10.0,Calm,Calm,-,N/A,,Clear,0,2011-11-01 06:54:00
3:54 AM,35.1,30.9,85,30.30,10.0,Calm,Calm,-,N/A,,Clear,0,2011-11-01 07:54:00
4:54 AM,33.1,30.9,92,30.31,10.0,Calm,Calm,-,N/A,,Clear,0,2011-11-01 08:54:00
5:54 AM,33.1,30.0,89,30.32,10.0,Calm,Calm,-,N/A,,Clear,0,2011-11-01 09:54:00
6:54 AM,32.0,30.0,92,30.32,9.0,Calm,Calm,-,N/A,,Clear,0,2011-11-01 10:54:00
7:54 AM,30.9,28.9,92,30.34,7.0,Calm,Calm,-,N/A,,Clear,0,2011-11-01 11:54:00
8:54 AM,33.8,30.2,87,30.34,9.0,Calm,Calm,-,N/A,,Clear,0,2011-11-01 12:54:00
9:54 AM,37.4,33.8,87,30.35,8.0,Calm,Calm,-,N/A,,Clear,0,2011-11-01 13:54:00
10:54 AM,42.8,33.8,70,30.35,10.0,SW,3.5,-,N/A,,Clear,230,2011-11-01 14:54:00
11:54 AM,48.0,36.0,63,30.36,10.0,Calm,Calm,-,N/A,,Clear,0,2011-11-01 15:54:00
12:54 PM,51.1,36.0,56,30.33,10.0,Calm,Calm,-,N/A,,Clear,0,2011-11-01 16:54:00
1:54 PM,53.1,36.0,52,30.31,10.0,Calm,Calm,-,N/A,,Partly Cloudy,0,2011-11-01 17:54:00
2:54 PM,53.6,37.4,54,30.30,10.0,SSE,4.6,-,N/A,,Clear,160,2011-11-01 18:54:00
3:54 PM,55.0,36.0,49,30.30,10.0,Calm,Calm,-,N/A,,Clear,0,2011-11-01 19:54:00
4:54 PM,54.0,36.0,51,30.30,10.0,SE,3.5,-,N/A,,Partly Cloudy,140,2011-11-01 20:54:00
5:54 PM,48.0,39.0,71,30.30,10.0,Calm,Calm,-,N/A,,Clear,0,2011-11-01 21:54:00
6:54 PM,46.0,36.0,68,30.31,10.0,Calm,Calm,-,N/A,,Clear,0,2011-11-01 22:54:00
7:54 PM,44.6,37.4,76,30.32,10.0,Calm,Calm,-,N/A,,Clear,0,2011-11-01 23:54:00
8:54 PM,41.0,35.1,79,30.35,10.0,Calm,Calm,-,N/A,,Clear,0,2011-11-02 00:54:00
9:54 PM,39.9,36.0,86,30.35,10.0,Calm,Calm,-,N/A,,Clear,0,2011-11-02 01:54:00
10:54 PM,37.9,34.0,86,30.36,10.0,Calm,Calm,-,N/A,,Clear,0,2011-11-02 02:54:00
11:54 PM,35.6,33.8,93,30.34,10.0,Calm,Calm,-,N/A,,Clear,0,2011-11-02 03:54:00